Time;durP1;ratioP1;P1;durP2;ratioP2;P2;SDS_P1;SDS_P2;PMS_P1;PMS_P2;Temp;Humidity;BMP_temperature;BMP_pressure;BME280_temperature;BME280_humidity;BME280_pressure;Samples;Min_cycle;Max_cycle;Signal;HPM_P1;HPM_P2
2022/04/14 00:00:36;;;;;;;7.03;3.53;;;;;;;11.86;100.00;101679.88;6223771;28;20050;-71
2022/04/14 00:03:37;;;;;;;10.45;3.75;;;;;;;11.87;100.00;101689.47;6224571;28;20049;-71
2022/04/14 00:06:39;;;;;;;5.68;2.67;;;;;;;11.77;100.00;101686.34;6225472;28;20050;-72
2022/04/14 00:09:41;;;;;;;4.78;2.60;;;;;;;11.76;100.00;101689.03;6226236;28;20061;-71
2022/04/14 00:12:45;;;;;;;4.80;2.60;;;;;;;11.71;100.00;101686.59;6225345;28;20054;-72
2022/04/14 00:15:47;;;;;;;7.07;2.67;;;;;;;11.70;100.00;101690.16;6225207;28;20209;-71
2022/04/14 00:18:48;;;;;;;8.02;2.55;;;;;;;11.64;100.00;101687.81;6223968;28;20057;-72
2022/04/14 00:21:49;;;;;;;3.60;1.98;;;;;;;11.59;100.00;101685.38;6223880;28;20042;-71
2022/04/14 00:24:51;;;;;;;4.95;2.60;;;;;;;11.57;100.00;101683.72;6223589;28;20045;-71
2022/04/14 00:27:53;;;;;;;2.70;1.85;;;;;;;11.58;100.00;101696.81;6223658;28;20490;-71
2022/04/14 00:30:55;;;;;;;4.25;2.28;;;;;;;11.46;100.00;101689.44;6223184;28;20057;-71
2022/04/14 00:33:56;;;;;;;4.45;2.17;;;;;;;11.40;100.00;101689.69;6223668;28;20049;-71
2022/04/14 00:36:57;;;;;;;4.63;1.48;;;;;;;11.39;100.00;101690.59;6223835;28;20058;-71
2022/04/14 00:39:58;;;;;;;2.65;1.77;;;;;;;11.35;100.00;101691.63;6223127;28;20053;-71
2022/04/14 00:43:01;;;;;;;5.30;1.88;;;;;;;11.32;100.00;101695.28;6223183;28;20042;-71
2022/04/14 00:46:04;;;;;;;5.38;3.03;;;;;;;11.31;100.00;101692.69;6223339;28;20589;-71
2022/04/14 00:49:05;;;;;;;3.67;2.60;;;;;;;11.25;100.00;101691.16;6223258;28;20057;-71
2022/04/14 00:52:07;;;;;;;3.53;2.15;;;;;;;11.28;100.00;101692.81;6222275;28;20072;-71
2022/04/14 00:55:09;;;;;;;3.45;2.05;;;;;;;11.28;100.00;101693.69;6223530;28;20061;-71
2022/04/14 00:58:13;;;;;;;3.40;2.10;;;;;;;11.29;100.00;101684.84;6222005;28;20057;-71
2022/04/14 01:01:14;;;;;;;2.67;1.92;;;;;;;11.30;100.00;101685.72;6222409;28;20500;-71
2022/04/14 01:04:16;;;;;;;3.53;2.42;;;;;;;11.32;100.00;101684.75;6222692;28;20061;-70
2022/04/14 01:07:18;;;;;;;3.72;2.28;;;;;;;11.29;100.00;101691.91;6222824;28;20421;-70
2022/04/14 01:10:20;;;;;;;3.70;2.35;;;;;;;11.26;100.00;101687.59;6222150;28;20394;-70
2022/04/14 01:13:22;;;;;;;3.58;2.13;;;;;;;11.26;100.00;101681.50;6222665;28;20045;-70
2022/04/14 01:16:24;;;;;;;5.97;2.60;;;;;;;11.22;100.00;101687.78;6222882;28;20414;-70
2022/04/14 01:19:26;;;;;;;6.38;2.70;;;;;;;11.19;100.00;101688.78;6222782;28;20053;-70
2022/04/14 01:22:31;;;;;;;5.32;2.63;;;;;;;11.21;100.00;101683.47;6222285;28;20052;-70
2022/04/14 01:25:35;;;;;;;3.80;2.50;;;;;;;11.18;100.00;101684.47;6222639;28;20556;-70
2022/04/14 01:28:36;;;;;;;4.18;2.72;;;;;;;11.14;100.00;101680.25;6222208;28;20061;-70
2022/04/14 01:31:38;;;;;;;4.78;2.08;;;;;;;11.11;100.00;101680.34;6221522;28;20052;-70
2022/04/14 01:34:39;;;;;;;4.63;2.20;;;;;;;11.12;100.00;101680.28;6222501;28;20049;-70
2022/04/14 01:37:41;;;;;;;5.53;2.15;;;;;;;11.15;100.00;101687.22;6220909;28;20061;-69
2022/04/14 01:40:43;;;;;;;4.25;2.13;;;;;;;11.12;100.00;101693.44;6218537;28;20056;-70
2022/04/14 01:43:45;;;;;;;3.80;2.20;;;;;;;11.16;100.00;101696.81;6220670;28;20053;-70
2022/04/14 01:46:46;;;;;;;3.78;2.33;;;;;;;11.20;100.00;101697.53;6222073;28;20072;-70
2022/04/14 01:49:47;;;;;;;5.97;2.30;;;;;;;11.21;100.00;101696.63;6221889;28;20041;-70
2022/04/14 01:52:49;;;;;;;4.20;2.60;;;;;;;11.25;100.00;101695.56;6221733;28;20053;-70
2022/04/14 01:55:51;;;;;;;3.25;2.22;;;;;;;11.23;100.00;101706.16;6222445;28;20053;-70
2022/04/14 01:58:53;;;;;;;3.80;2.72;;;;;;;11.18;100.00;101698.47;6222092;28;20433;-70
2022/04/14 02:01:54;;;;;;;4.75;1.80;;;;;;;11.23;100.00;101692.16;6221472;28;20046;-70
2022/04/14 02:04:56;;;;;;;6.13;2.90;;;;;;;11.21;100.00;101701.88;6221980;28;20049;-70
2022/04/14 02:07:57;;;;;;;6.07;2.53;;;;;;;11.21;100.00;101705.38;6222223;28;20057;-70
2022/04/14 02:10:59;;;;;;;4.88;2.75;;;;;;;11.18;100.00;101697.63;6225533;28;20056;-70
2022/04/14 02:14:01;;;;;;;6.90;3.03;;;;;;;11.14;100.00;101706.53;6226797;28;20504;-70
2022/04/14 02:17:02;;;;;;;4.40;2.65;;;;;;;11.16;100.00;101697.66;6227090;28;20046;-70
2022/04/14 02:20:05;;;;;;;4.63;2.75;;;;;;;11.20;100.00;101694.91;6226396;28;20049;-70
2022/04/14 02:23:06;;;;;;;4.30;2.55;;;;;;;11.18;100.00;101698.47;6226328;28;20116;-70
2022/04/14 02:26:09;;;;;;;5.80;2.70;;;;;;;11.12;100.00;101696.06;6226274;28;20056;-70
2022/04/14 02:29:10;;;;;;;5.10;1.95;;;;;;;11.09;100.00;101696.22;6226298;28;20056;-70
2022/04/14 02:32:12;;;;;;;5.43;2.92;;;;;;;11.09;100.00;101690.09;6225759;28;20053;-69
2022/04/14 02:35:13;;;;;;;4.53;2.30;;;;;;;11.09;100.00;101687.47;6226842;28;20056;-69
2022/04/14 02:38:14;;;;;;;2.28;1.90;;;;;;;11.12;100.00;101676.78;6226439;28;20054;-70
2022/04/14 02:41:17;;;;;;;5.75;2.85;;;;;;;11.13;100.00;101691.69;6225683;28;20513;-69
2022/04/14 02:44:18;;;;;;;3.78;1.85;;;;;;;11.08;100.00;101685.72;6226155;28;20053;-71
2022/04/14 02:47:20;;;;;;;2.83;1.60;;;;;;;11.07;100.00;101678.75;6226068;28;20061;-69
2022/04/14 02:50:22;;;;;;;2.08;1.55;;;;;;;11.02;100.00;101678.94;6225400;28;20057;-70
2022/04/14 02:53:24;;;;;;;3.08;1.65;;;;;;;11.02;100.00;101680.72;6225891;28;20047;-70
2022/04/14 02:56:27;;;;;;;2.88;1.90;;;;;;;11.05;100.00;101664.84;6226102;28;20456;-70
2022/04/14 02:59:28;;;;;;;3.65;1.90;;;;;;;10.99;100.00;101675.56;6225885;28;20054;-70
2022/04/14 03:02:30;;;;;;;2.85;1.17;;;;;;;10.99;100.00;101665.94;6225258;28;20050;-70
2022/04/14 03:05:31;;;;;;;3.33;1.98;;;;;;;10.98;100.00;101658.94;6225817;28;20057;-70
2022/04/14 03:08:32;;;;;;;3.90;1.80;;;;;;;10.98;100.00;101665.97;6225619;28;20403;-70
2022/04/14 03:11:35;;;;;;;3.63;1.77;;;;;;;10.95;100.00;101661.72;6225049;28;20057;-70
2022/04/14 03:14:36;;;;;;;6.32;1.60;;;;;;;10.96;100.00;101663.41;6225497;28;20429;-69
2022/04/14 03:17:38;;;;;;;2.92;1.80;;;;;;;10.93;100.00;101667.03;6225712;28;20060;-70
2022/04/14 03:20:39;;;;;;;2.03;1.50;;;;;;;10.96;100.00;101665.19;6223672;28;20054;-70
2022/04/14 03:23:40;;;;;;;5.78;2.15;;;;;;;10.93;100.00;101668.78;6225434;28;20053;-70
2022/04/14 03:26:43;;;;;;;3.03;1.88;;;;;;;10.92;100.00;101656.56;6225340;28;20050;-70
2022/04/14 03:29:45;;;;;;;2.35;1.70;;;;;;;10.93;100.00;101655.66;6225029;28;20053;-70
2022/04/14 03:32:47;;;;;;;2.72;2.10;;;;;;;10.92;100.00;101654.78;6224745;28;20555;-69
2022/04/14 03:35:49;;;;;;;2.65;1.80;;;;;;;10.88;100.00;101668.13;6225256;28;20065;-70
2022/04/14 03:38:50;;;;;;;2.55;1.77;;;;;;;10.87;100.00;101662.00;6225084;28;20060;-70
2022/04/14 03:41:53;;;;;;;7.40;1.63;;;;;;;10.86;100.00;101667.34;6224495;28;20065;-70
2022/04/14 03:44:54;;;;;;;3.15;1.73;;;;;;;10.84;100.00;101666.53;6224961;28;20061;-69
2022/04/14 03:47:56;;;;;;;4.57;1.98;;;;;;;10.83;100.00;101670.09;6224856;28;20058;-69
2022/04/14 03:50:57;;;;;;;3.28;1.67;;;;;;;10.77;100.00;101651.94;6224430;28;20142;-70
2022/04/14 03:53:59;;;;;;;3.85;1.92;;;;;;;10.72;100.00;101648.59;6224614;28;20077;-70
2022/04/14 03:57:01;;;;;;;2.08;1.60;;;;;;;10.67;100.00;101656.66;6224874;28;20129;-70
2022/04/14 04:00:03;;;;;;;2.95;1.88;;;;;;;10.72;100.00;101667.88;6224390;28;20065;-70
2022/04/14 04:03:05;;;;;;;3.50;1.50;;;;;;;10.73;100.00;101656.44;6224239;28;20050;-70
2022/04/14 04:06:06;;;;;;;3.58;1.63;;;;;;;10.71;100.00;101660.91;6224507;28;20049;-70
2022/04/14 04:09:07;;;;;;;1.90;1.50;;;;;;;10.74;100.00;101642.38;6224508;28;20053;-71
2022/04/14 04:12:11;;;;;;;2.00;1.33;;;;;;;10.70;100.00;101647.81;6223542;28;20069;-69
2022/04/14 04:15:12;;;;;;;3.78;1.75;;;;;;;10.69;100.00;101656.63;6224380;28;20521;-70
2022/04/14 04:18:13;;;;;;;2.50;1.75;;;;;;;10.68;100.00;101668.06;6224125;28;20052;-70
2022/04/14 04:21:15;;;;;;;5.93;1.70;;;;;;;10.62;100.00;101664.72;6223556;28;20054;-70
2022/04/14 04:24:16;;;;;;;2.97;1.42;;;;;;;10.62;100.00;101667.38;6223470;28;20077;-70
2022/04/14 04:27:24;;;;;;;5.00;1.30;;;;;;;10.59;100.00;101661.41;6223741;28;20050;-70
2022/04/14 04:30:26;;;;;;;4.50;1.65;;;;;;;10.61;100.00;101677.94;6222972;28;20484;-70
2022/04/14 04:33:27;;;;;;;3.00;1.40;;;;;;;10.63;100.00;101673.50;6223369;28;20046;-70
2022/04/14 04:36:28;;;;;;;1.58;1.40;;;;;;;10.62;100.00;101677.88;6223823;28;20050;-70
2022/04/14 04:39:30;;;;;;;3.65;1.98;;;;;;;10.60;100.00;101679.72;6223567;28;20091;-70
2022/04/14 04:42:32;;;;;;;3.78;1.70;;;;;;;10.58;100.00;101675.44;6223103;28;20046;-70
2022/04/14 04:45:34;;;;;;;3.30;1.88;;;;;;;10.57;100.00;101684.22;6223551;28;20050;-70
2022/04/14 04:48:36;;;;;;;3.42;1.85;;;;;;;10.57;100.00;101678.97;6223200;28;20187;-69
2022/04/14 04:51:37;;;;;;;2.35;1.48;;;;;;;10.57;100.00;101678.97;6222472;28;20049;-70
2022/04/14 04:54:38;;;;;;;3.15;1.45;;;;;;;10.53;100.00;101688.75;6223645;28;20042;-70
2022/04/14 04:57:41;;;;;;;4.13;2.15;;;;;;;10.54;100.00;101692.25;6223236;28;20050;-69
2022/04/14 05:00:43;;;;;;;2.80;1.55;;;;;;;10.53;100.00;101694.00;6222500;28;20053;-70
2022/04/14 05:03:44;;;;;;;5.43;2.58;;;;;;;10.53;100.00;101696.63;6223359;28;20058;-70
2022/04/14 05:06:45;;;;;;;3.40;1.90;;;;;;;10.56;100.00;101695.66;6223312;28;20058;-69
2022/04/14 05:09:47;;;;;;;6.05;3.05;;;;;;;10.55;100.00;101709.72;6222641;28;20045;-70
2022/04/14 05:12:49;;;;;;;4.22;2.78;;;;;;;10.56;100.00;101708.81;6222198;28;20409;-70
2022/04/14 05:15:51;;;;;;;3.50;2.75;;;;;;;10.55;100.00;101713.22;6221163;28;20048;-70
2022/04/14 05:18:52;;;;;;;4.90;2.38;;;;;;;10.56;100.00;101712.28;6221080;28;20061;-70
2022/04/14 05:21:53;;;;;;;6.32;3.60;;;;;;;10.59;100.00;101712.19;6220201;28;20050;-69
2022/04/14 05:24:55;;;;;;;4.00;2.40;;;;;;;10.63;100.00;101715.56;6220958;28;20048;-70
2022/04/14 05:27:57;;;;;;;4.18;2.30;;;;;;;10.63;100.00;101713.78;6221314;28;20054;-70
2022/04/14 05:31:00;;;;;;;2.78;2.22;;;;;;;10.67;100.00;101719.75;6221892;28;20053;-70
2022/04/14 05:34:01;;;;;;;5.40;2.47;;;;;;;10.68;100.00;101718.88;6222446;28;20161;-70
2022/04/14 05:37:02;;;;;;;3.58;2.10;;;;;;;10.66;100.00;101718.91;6222582;28;20061;-69
2022/04/14 05:40:04;;;;;;;4.28;2.40;;;;;;;10.65;100.00;101729.50;6221888;28;20505;-70
2022/04/14 05:43:07;;;;;;;3.50;1.65;;;;;;;10.65;100.00;101724.22;6222175;28;20056;-69
2022/04/14 05:46:08;;;;;;;3.35;2.22;;;;;;;10.67;100.00;101732.91;6221852;28;20413;-70
2022/04/14 05:49:10;;;;;;;3.38;2.08;;;;;;;10.64;100.00;101730.41;6222237;28;20644;-70
2022/04/14 05:52:11;;;;;;;2.63;1.80;;;;;;;10.69;100.00;101732.88;6221354;28;20049;-69
2022/04/14 05:55:12;;;;;;;3.15;1.70;;;;;;;10.70;100.00;101738.06;6222265;28;20068;-69
2022/04/14 05:58:16;;;;;;;1.98;1.23;;;;;;;10.72;100.00;101740.63;6222165;28;20054;-69
2022/04/14 06:01:17;;;;;;;2.70;1.70;;;;;;;10.74;100.00;101738.81;6221684;28;20444;-69
2022/04/14 06:04:19;;;;;;;3.55;1.80;;;;;;;10.77;100.00;101736.91;6218691;28;20053;-69
2022/04/14 06:07:20;;;;;;;1.90;1.17;;;;;;;10.78;100.00;101746.50;6221838;28;20409;-69
2022/04/14 06:10:22;;;;;;;2.30;1.38;;;;;;;10.81;100.00;101745.53;6221499;28;20057;-70
2022/04/14 06:13:25;;;;;;;2.33;1.40;;;;;;;10.85;100.00;101745.34;6221764;28;20417;-69
2022/04/14 06:16:26;;;;;;;2.33;1.20;;;;;;;10.85;100.00;101745.34;6222239;28;20057;-69
2022/04/14 06:19:28;;;;;;;3.30;1.30;;;;;;;10.90;100.00;101745.16;6221826;28;20464;-69
2022/04/14 06:22:29;;;;;;;1.60;1.13;;;;;;;10.86;100.00;101749.72;6221395;28;20045;-69
2022/04/14 06:25:31;;;;;;;1.70;1.23;;;;;;;10.88;100.00;101742.59;6221834;28;20046;-70
2022/04/14 06:28:34;;;;;;;1.80;1.25;;;;;;;10.84;100.00;101745.41;6221757;28;20457;-70
2022/04/14 06:31:37;;;;;;;2.22;1.40;;;;;;;10.86;100.00;101743.59;6226980;28;20057;-69
2022/04/14 06:34:38;;;;;;;1.90;1.50;;;;;;;10.91;100.00;101744.28;6232425;28;20113;-70
2022/04/14 06:37:40;;;;;;;1.67;1.52;;;;;;;10.93;100.00;101745.06;6227827;28;20046;-69
2022/04/14 06:40:41;;;;;;;4.18;1.80;;;;;;;10.96;100.00;101739.69;6216631;28;20060;-70
2022/04/14 06:43:45;;;;;;;2.33;1.52;;;;;;;11.02;100.00;101743.84;6221892;28;20110;-71
2022/04/14 06:46:46;;;;;;;3.53;1.38;;;;;;;11.11;100.00;101736.44;6221743;28;20045;-70
2022/04/14 06:49:48;;;;;;;3.17;1.45;;;;;;;11.18;100.00;101743.19;6218092;28;20047;-70
2022/04/14 06:52:51;;;;;;;3.28;1.70;;;;;;;11.16;100.00;101746.78;6219455;28;20054;-70
2022/04/14 06:55:53;;;;;;;4.47;1.92;;;;;;;11.23;100.00;101737.75;6220105;28;20054;-70
2022/04/14 06:58:56;;;;;;;4.80;1.95;;;;;;;11.31;100.00;101732.16;6222283;28;20053;-71
2022/04/14 07:01:57;;;;;;;3.25;2.13;;;;;;;11.40;100.00;101735.28;6225215;28;20058;-69
2022/04/14 07:04:59;;;;;;;3.40;1.65;;;;;;;11.40;100.00;101737.94;6225705;28;20048;-69
2022/04/14 07:08:00;;;;;;;3.85;2.00;;;;;;;11.46;100.00;101734.19;6225806;28;20057;-69
2022/04/14 07:11:01;;;;;;;6.93;2.28;;;;;;;11.52;100.00;101746.22;6225298;28;20053;-69
2022/04/14 07:14:04;;;;;;;4.95;2.72;;;;;;;11.56;100.00;101739.91;6225041;28;20046;-70
2022/04/14 07:17:06;;;;;;;5.57;2.65;;;;;;;11.57;100.00;101742.47;6225022;28;20418;-69
2022/04/14 07:20:09;;;;;;;7.57;3.22;;;;;;;11.53;100.00;101740.03;6222384;28;20054;-70
2022/04/14 07:23:11;;;;;;;6.68;3.33;;;;;;;11.56;100.00;101745.19;6224930;28;20046;-69
2022/04/14 07:26:12;;;;;;;5.15;2.80;;;;;;;11.64;100.00;101749.22;6220047;28;20493;-70
2022/04/14 07:29:15;;;;;;;7.32;3.42;;;;;;;11.62;100.00;101737.88;6221474;28;20053;-70
2022/04/14 07:32:23;;;;;;;6.97;4.10;;;;;;;11.61;100.00;101738.78;6223384;28;20508;-70
2022/04/14 07:35:25;;;;;;;10.93;5.65;;;;;;;11.66;100.00;101742.09;6217579;28;20053;-71
2022/04/14 07:38:27;;;;;;;9.02;4.30;;;;;;;11.70;100.00;101742.81;6213065;28;20066;-70
2022/04/14 07:41:28;;;;;;;6.53;3.83;;;;;;;11.67;100.00;101743.81;6207032;28;20064;-70
2022/04/14 07:44:31;;;;;;;10.93;4.05;;;;;;;11.70;100.00;101745.47;6224259;28;20053;-70
2022/04/14 07:47:32;;;;;;;9.15;4.18;;;;;;;11.76;100.00;101744.34;6224087;28;20394;-75
2022/04/14 07:50:33;;;;;;;11.60;5.20;;;;;;;11.80;100.00;101744.13;6223081;28;20049;-75
2022/04/14 07:53:37;;;;;;;10.80;4.43;;;;;;;11.90;100.00;101750.78;6224297;28;20057;-69
2022/04/14 07:56:38;;;;;;;12.13;5.22;;;;;;;11.91;100.00;101749.00;6222287;28;20054;-70
2022/04/14 07:59:41;;;;;;;12.07;4.90;;;;;;;11.95;100.00;101752.38;6223873;28;20516;-70
2022/04/14 08:02:54;;;;;;;12.90;5.80;;;;;;;12.02;100.00;101754.66;6222961;28;20505;-70
2022/04/14 08:05:55;;;;;;;11.88;5.97;;;;;;;12.04;100.00;101754.59;6224149;28;20052;-70
2022/04/14 08:08:57;;;;;;;11.32;6.25;;;;;;;12.09;100.00;101760.53;6223619;28;20050;-70
2022/04/14 08:11:58;;;;;;;15.80;6.75;;;;;;;12.10;100.00;101756.97;6222618;28;20054;-69
2022/04/14 08:15:01;;;;;;;16.02;6.68;;;;;;;12.22;100.00;101763.47;6224071;28;20049;-70
2022/04/14 08:18:03;;;;;;;15.95;6.88;;;;;;;12.36;100.00;101766.38;6224096;28;20664;-70
2022/04/14 08:21:04;;;;;;;12.05;5.97;;;;;;;12.42;100.00;101760.81;6223395;28;20075;-70
2022/04/14 08:24:07;;;;;;;12.00;5.97;;;;;;;12.41;100.00;101767.03;6223991;28;20068;-69
2022/04/14 08:27:08;;;;;;;13.88;6.90;;;;;;;12.46;100.00;101756.28;6224038;28;20056;-69
2022/04/14 08:30:12;;;;;;;14.55;6.53;;;;;;;12.56;100.00;101761.03;6222505;28;20076;-70
2022/04/14 08:33:16;;;;;;;15.50;7.13;;;;;;;12.78;100.00;101758.28;6216954;28;20049;-70
2022/04/14 08:36:17;;;;;;;15.80;7.20;;;;;;;12.84;100.00;101768.53;6223348;28;20449;-70
2022/04/14 08:39:19;;;;;;;21.15;8.50;;;;;;;12.78;100.00;101763.56;6223263;28;20050;-69
2022/04/14 08:42:26;;;;;;;22.25;8.57;;;;;;;12.78;100.00;101766.19;6223099;28;20054;-70
2022/04/14 08:45:31;;;;;;;17.17;8.48;;;;;;;12.79;100.00;101762.63;6222975;28;20053;-73
2022/04/14 08:48:35;;;;;;;25.98;8.55;;;;;;;12.82;100.00;101757.22;6220147;28;20557;-69
2022/04/14 08:51:37;;;;;;;19.08;8.50;;;;;;;12.85;100.00;101759.72;6222432;28;20455;-70
2022/04/14 08:54:39;;;;;;;22.05;8.63;;;;;;;12.87;100.00;101771.03;6223162;28;20041;-70
2022/04/14 08:57:42;;;;;;;41.22;18.65;;;;;;;13.01;100.00;101759.00;6223194;28;20053;-70
2022/04/14 09:00:44;;;;;;;19.75;9.38;;;;;;;13.12;100.00;101760.19;6222428;28;20053;-69
2022/04/14 09:03:46;;;;;;;17.55;8.43;;;;;;;13.25;100.00;101760.47;6223102;28;20046;-70
2022/04/14 09:06:48;;;;;;;20.98;9.02;;;;;;;13.19;100.00;101766.03;6222941;28;20469;-69
2022/04/14 09:09:49;;;;;;;20.10;8.82;;;;;;;13.18;100.00;101769.63;6222634;28;20061;-69
2022/04/14 09:12:51;;;;;;;21.40;8.93;;;;;;;13.12;100.00;101772.53;6222559;28;20053;-69
2022/04/14 09:15:53;;;;;;;26.33;10.23;;;;;;;13.08;100.00;101771.84;6222689;28;20046;-69
2022/04/14 09:18:56;;;;;;;22.45;9.65;;;;;;;13.10;100.00;101767.31;6222215;28;20429;-69
2022/04/14 09:21:58;;;;;;;25.58;9.77;;;;;;;13.21;100.00;101767.66;6222096;28;20513;-70
2022/04/14 09:25:00;;;;;;;17.95;8.50;;;;;;;13.29;100.00;101772.59;6222718;28;20041;-69
2022/04/14 09:28:09;;;;;;;22.08;9.73;;;;;;;13.32;100.00;101763.69;6222837;28;20056;-70
2022/04/14 09:31:12;;;;;;;19.23;9.95;;;;;;;13.40;100.00;101764.19;6221983;28;20416;-70
2022/04/14 09:34:15;;;;;;;23.05;9.95;;;;;;;13.39;100.00;101762.44;6222737;28;20501;-69
2022/04/14 09:37:17;;;;;;;19.52;8.82;;;;;;;13.44;100.00;101763.06;6222775;28;20450;-72
2022/04/14 09:40:18;;;;;;;17.98;9.68;;;;;;;13.44;100.00;101761.31;6221954;28;20049;-72
2022/04/14 09:43:21;;;;;;;23.55;10.88;;;;;;;13.46;100.00;101758.59;6222429;28;20413;-70
2022/04/14 09:46:24;;;;;;;22.20;9.32;;;;;;;13.59;100.00;101746.50;6222566;28;20056;-71
2022/04/14 09:49:25;;;;;;;18.58;9.60;;;;;;;13.65;100.00;101751.47;6222079;28;20625;-70
2022/04/14 09:52:27;;;;;;;20.13;8.90;;;;;;;13.64;100.00;101748.91;6221966;28;20053;-70
2022/04/14 09:55:28;;;;;;;20.92;9.98;;;;;;;13.69;100.00;101739.81;6222205;28;20060;-70
2022/04/14 09:58:32;;;;;;;21.55;9.65;;;;;;;13.67;100.00;101748.72;6222048;28;20425;-69
2022/04/14 10:01:35;;;;;;;24.73;10.52;;;;;;;13.61;100.00;101746.41;6221449;28;20121;-69
2022/04/14 10:04:38;;;;;;;19.40;8.80;;;;;;;13.71;100.00;101745.84;6222361;28;20049;-71
2022/04/14 10:07:58;;;;;;;19.45;9.57;;;;;;;13.90;100.00;101748.44;6222575;28;20045;-70
2022/04/14 10:11:05;;;;;;;15.30;8.88;;;;;;;14.08;100.00;101740.47;6221664;28;20104;-70
2022/04/14 10:14:10;;;;;;;22.70;10.80;;;;;;;14.14;100.00;101748.09;6222583;28;20042;-70
2022/04/14 10:17:14;;;;;;;18.25;9.55;;;;;;;14.20;100.00;101735.41;6221816;28;20054;-70
2022/04/14 10:20:17;;;;;;;17.08;8.38;;;;;;;14.32;100.00;101728.63;6221628;28;20046;-70
2022/04/14 10:23:19;;;;;;;19.60;8.45;;;;;;;14.48;100.00;101733.97;6221876;28;20050;-70
2022/04/14 10:26:22;;;;;;;22.27;10.10;;;;;;;14.82;100.00;101726.84;6222001;28;20042;-71
2022/04/14 10:29:25;;;;;;;18.17;9.13;;;;;;;14.87;100.00;101730.09;6221774;28;20474;-70
2022/04/14 10:32:28;;;;;;;19.23;9.20;;;;;;;14.85;100.00;101731.94;6226050;28;20133;-71
2022/04/14 10:35:31;;;;;;;21.42;9.75;;;;;;;14.78;100.00;101726.16;6226533;28;20046;-71
2022/04/14 10:38:35;;;;;;;22.65;9.55;;;;;;;14.69;100.00;101724.88;6225874;28;20050;-70
2022/04/14 10:41:42;;;;;;;20.25;9.25;;;;;;;14.70;100.00;101720.44;6225500;28;20072;-70
2022/04/14 10:44:45;;;;;;;19.42;9.75;;;;;;;14.79;100.00;101719.94;6226490;28;20128;-71
2022/04/14 10:47:58;;;;;;;16.35;8.57;;;;;;;14.92;100.00;101720.94;6226180;28;20056;-68
2022/04/14 10:51:20;;;;;;;18.27;9.38;;;;;;;14.86;100.00;101728.41;6222651;28;20050;-71
2022/04/14 10:54:21;;;;;;;17.80;8.82;;;;;;;14.62;100.00;101714.69;6225972;28;20049;-70
2022/04/14 10:57:36;;;;;;;16.33;7.95;;;;;;;14.58;100.00;101719.34;6225718;28;20151;-70
2022/04/14 11:00:38;;;;;;;14.73;7.55;;;;;;;14.95;100.00;101715.50;6200786;28;20058;-70
2022/04/14 11:03:48;;;;;;;21.63;8.80;;;;;;;15.23;100.00;101717.44;6214855;28;20045;-71
2022/04/14 11:06:51;;;;;;;18.75;8.55;;;;;;;15.15;100.00;101717.00;6224882;28;20054;-71
2022/04/14 11:09:57;;;;;;;16.23;7.97;;;;;;;15.21;100.00;101713.16;6225559;28;20060;-70
2022/04/14 11:12:58;;;;;;;20.63;8.30;;;;;;;15.18;100.00;101716.00;6223360;28;20539;-71
2022/04/14 11:15:59;;;;;;;20.55;9.18;;;;;;;15.16;100.00;101718.69;6224196;28;20046;-71
2022/04/14 11:19:27;;;;;;;17.13;7.43;;;;;;;15.15;100.00;101717.00;6223835;28;20425;-71
2022/04/14 11:23:04;;;;;;;15.85;8.52;;;;;;;15.62;100.00;101709.88;6221135;28;20421;-71
2022/04/14 11:26:11;;;;;;;15.70;7.53;;;;;;;15.98;100.00;101715.66;6221515;28;20053;-71
2022/04/14 11:29:13;;;;;;;14.75;6.72;;;;;;;15.81;100.00;101709.69;6223791;28;20053;-71
2022/04/14 11:32:16;;;;;;;13.98;6.72;;;;;;;15.80;100.00;101707.97;6223031;28;20073;-71
2022/04/14 11:35:18;;;;;;;15.48;6.30;;;;;;;15.67;100.00;101710.53;6223641;28;20493;-71
2022/04/14 11:38:53;;;;;;;14.63;6.97;;;;;;;15.48;100.00;101714.19;6220950;28;20042;-71
2022/04/14 11:41:57;;;;;;;19.45;7.60;;;;;;;15.53;100.00;101711.28;6214741;28;20398;-71
2022/04/14 11:45:00;;;;;;;25.13;7.70;;;;;;;15.56;100.00;101711.09;6220877;28;20073;-71
2022/04/14 11:48:03;;;;;;;12.75;6.68;;;;;;;15.54;100.00;101709.50;6220867;28;20037;-71
2022/04/14 11:51:06;;;;;;;15.45;7.55;;;;;;;15.69;100.00;101708.63;6222448;28;20042;-72
2022/04/14 11:54:08;;;;;;;12.23;6.53;;;;;;;15.62;100.00;101718.69;6223262;28;20398;-71
2022/04/14 11:57:10;;;;;;;16.40;7.15;;;;;;;15.37;100.00;101708.69;6223136;28;20498;-71
2022/04/14 12:00:13;;;;;;;13.35;7.70;;;;;;;15.23;100.00;101717.44;6223660;28;20073;-71
2022/04/14 12:03:16;;;;;;;25.70;9.23;;;;;;;15.10;100.00;101721.72;6224094;28;20056;-71
2022/04/14 12:06:18;;;;;;;14.13;7.07;;;;;;;15.00;100.00;101717.03;6224683;28;20046;-71
2022/04/14 12:09:21;;;;;;;14.57;7.07;;;;;;;14.97;100.00;101726.00;6220574;28;20057;-71
2022/04/14 12:12:23;;;;;;;11.52;6.20;;;;;;;14.98;100.00;101725.03;6223688;28;20046;-71
2022/04/14 12:15:24;;;;;;;14.38;7.00;;;;;;;15.07;100.00;101723.66;6224373;28;20049;-71
2022/04/14 12:18:25;;;;;;;10.57;5.85;;;;;;;15.30;100.00;101722.34;6224369;28;20053;-72
2022/04/14 12:21:28;;;;;;;14.70;5.75;;;;;;;15.40;100.00;101718.25;6223464;28;20050;-72
2022/04/14 12:24:29;;;;;;;15.95;6.53;;;;;;;15.50;100.00;101716.78;6224189;28;20116;-71
2022/04/14 12:27:34;;;;;;;13.38;6.60;;;;;;;15.35;100.00;101722.94;6224073;28;20057;-72
2022/04/14 12:30:41;;;;;;;10.73;5.70;;;;;;;15.18;100.00;101723.94;6223025;28;20046;-73
2022/04/14 12:33:42;;;;;;;11.25;5.50;;;;;;;14.97;100.00;101721.53;6224001;28;20053;-73
2022/04/14 12:36:45;;;;;;;13.85;6.00;;;;;;;14.85;100.00;101724.91;6223606;28;20050;-73
2022/04/14 12:40:00;;;;;;;12.70;6.07;;;;;;;14.85;100.00;101724.91;6223205;28;20052;-73
2022/04/14 12:43:05;;;;;;;16.95;6.63;;;;;;;15.01;100.00;101714.28;6220005;28;20046;-72
2022/04/14 12:46:21;;;;;;;15.13;6.90;;;;;;;15.19;100.00;101715.03;6223472;28;20074;-73
2022/04/14 12:49:31;;;;;;;13.80;6.90;;;;;;;15.30;100.00;101712.63;6223184;28;20049;-72
2022/04/14 12:52:34;;;;;;;15.07;6.85;;;;;;;15.35;100.00;101712.34;6222711;28;20053;-72
2022/04/14 12:55:36;;;;;;;18.13;7.15;;;;;;;15.45;100.00;101709.09;6222426;28;20563;-72
2022/04/14 12:58:37;;;;;;;14.85;6.35;;;;;;;15.86;100.00;101720.88;6223454;28;20085;-72
2022/04/14 13:01:49;;;;;;;11.90;6.13;;;;;;;16.31;100.00;101714.56;6222312;28;20057;-73
2022/04/14 13:04:51;;;;;;;17.85;6.68;;;;;;;16.23;100.00;101712.38;6223539;28;20520;-72
2022/04/14 13:07:54;;;;;;;12.90;6.85;;;;;;;15.97;100.00;101711.31;6229180;28;20054;-72
2022/04/14 13:10:56;;;;;;;12.07;6.47;;;;;;;15.67;100.00;101703.44;6233999;28;20056;-72
2022/04/14 13:14:15;;;;;;;11.52;6.30;;;;;;;15.53;100.00;101707.78;6233313;28;20060;-72
2022/04/14 13:17:16;;;;;;;10.35;5.95;;;;;;;15.51;100.00;101704.38;6232583;28;20061;-72
2022/04/14 13:20:20;;;;;;;13.48;7.00;;;;;;;15.52;100.00;101711.38;6232024;28;20054;-73
2022/04/14 13:23:22;;;;;;;11.45;5.50;;;;;;;15.45;100.00;101711.75;6225297;28;20061;-73
2022/04/14 13:26:24;;;;;;;10.55;6.18;;;;;;;15.47;100.00;101716.94;6223031;28;20497;-73
2022/04/14 13:29:25;;;;;;;11.90;5.97;;;;;;;15.46;100.00;101718.75;6221698;28;20053;-71
2022/04/14 13:32:27;;;;;;;11.35;5.93;;;;;;;15.50;100.00;101716.78;6221873;28;20050;-72
2022/04/14 13:35:28;;;;;;;14.18;5.72;;;;;;;15.42;100.00;101711.91;6222662;28;20045;-71
2022/04/14 13:38:31;;;;;;;8.82;5.38;;;;;;;15.39;100.00;101716.53;6222621;28;20053;-72
2022/04/14 13:41:32;;;;;;;12.63;5.55;;;;;;;15.29;100.00;101718.00;6219479;28;20045;-72
2022/04/14 13:44:34;;;;;;;9.48;5.28;;;;;;;15.18;100.00;101721.28;6222345;28;20053;-72
2022/04/14 13:47:35;;;;;;;7.63;4.30;;;;;;;15.13;100.00;101715.41;6221899;28;20073;-72
2022/04/14 13:50:38;;;;;;;6.90;4.68;;;;;;;15.16;100.00;101713.41;6221320;28;20046;-72
2022/04/14 13:53:41;;;;;;;7.18;4.18;;;;;;;15.23;100.00;101724.53;6222076;28;20057;-72
2022/04/14 13:56:42;;;;;;;7.65;4.45;;;;;;;15.34;100.00;101711.50;6222255;28;20049;-72